sensor_id;sensor_type;location;lat;lon;timestamp;P1;durP1;ratioP1;P2;durP2;ratioP2
14306;SDS011;7237;49.500;11.400;2024-02-21T00:01:31;6.93;;;3.00;;
14306;SDS011;7237;49.500;11.400;2024-02-21T00:03:58;6.67;;;3.10;;
14306;SDS011;7237;49.500;11.400;2024-02-21T00:06:25;13.03;;;3.10;;
14306;SDS011;7237;49.500;11.400;2024-02-21T00:08:52;5.70;;;2.90;;
14306;SDS011;7237;49.500;11.400;2024-02-21T00:11:20;9.33;;;3.77;;
14306;SDS011;7237;49.500;11.400;2024-02-21T00:13:48;9.27;;;3.43;;
14306;SDS011;7237;49.500;11.400;2024-02-21T00:16:15;7.20;;;3.20;;
14306;SDS011;7237;49.500;11.400;2024-02-21T00:18:42;10.37;;;3.17;;
14306;SDS011;7237;49.500;11.400;2024-02-21T00:21:09;12.27;;;3.43;;
14306;SDS011;7237;49.500;11.400;2024-02-21T00:23:40;8.67;;;3.30;;
14306;SDS011;7237;49.500;11.400;2024-02-21T00:26:07;6.33;;;3.57;;
14306;SDS011;7237;49.500;11.400;2024-02-21T00:28:35;10.80;;;3.43;;
14306;SDS011;7237;49.500;11.400;2024-02-21T00:31:02;6.33;;;2.90;;
14306;SDS011;7237;49.500;11.400;2024-02-21T00:33:30;8.93;;;3.30;;
14306;SDS011;7237;49.500;11.400;2024-02-21T00:35:57;6.07;;;2.93;;
14306;SDS011;7237;49.500;11.400;2024-02-21T00:38:24;6.70;;;2.90;;
14306;SDS011;7237;49.500;11.400;2024-02-21T00:40:51;9.00;;;2.93;;
14306;SDS011;7237;49.500;11.400;2024-02-21T00:43:18;7.90;;;3.20;;
14306;SDS011;7237;49.500;11.400;2024-02-21T00:45:49;8.90;;;2.73;;
14306;SDS011;7237;49.500;11.400;2024-02-21T00:48:16;8.63;;;3.43;;
14306;SDS011;7237;49.500;11.400;2024-02-21T00:50:44;5.90;;;2.97;;
14306;SDS011;7237;49.500;11.400;2024-02-21T00:53:11;6.97;;;3.00;;
14306;SDS011;7237;49.500;11.400;2024-02-21T00:55:38;8.00;;;3.23;;
14306;SDS011;7237;49.500;11.400;2024-02-21T00:58:05;7.33;;;2.80;;
14306;SDS011;7237;49.500;11.400;2024-02-21T01:00:32;9.00;;;3.20;;
14306;SDS011;7237;49.500;11.400;2024-02-21T01:03:00;7.30;;;3.00;;
14306;SDS011;7237;49.500;11.400;2024-02-21T01:05:28;9.80;;;3.33;;
14306;SDS011;7237;49.500;11.400;2024-02-21T01:07:55;9.43;;;3.10;;
14306;SDS011;7237;49.500;11.400;2024-02-21T01:10:22;7.97;;;3.27;;
14306;SDS011;7237;49.500;11.400;2024-02-21T01:12:49;8.90;;;3.47;;
14306;SDS011;7237;49.500;11.400;2024-02-21T01:15:16;8.17;;;3.30;;
14306;SDS011;7237;49.500;11.400;2024-02-21T01:17:43;10.20;;;3.40;;
14306;SDS011;7237;49.500;11.400;2024-02-21T01:20:12;10.33;;;3.83;;
14306;SDS011;7237;49.500;11.400;2024-02-21T01:22:39;14.43;;;3.20;;
14306;SDS011;7237;49.500;11.400;2024-02-21T01:25:06;7.13;;;3.00;;
14306;SDS011;7237;49.500;11.400;2024-02-21T01:27:34;12.67;;;4.13;;
14306;SDS011;7237;49.500;11.400;2024-02-21T01:30:01;7.10;;;3.47;;
14306;SDS011;7237;49.500;11.400;2024-02-21T01:32:28;11.30;;;3.67;;
14306;SDS011;7237;49.500;11.400;2024-02-21T01:34:55;8.13;;;3.27;;
14306;SDS011;7237;49.500;11.400;2024-02-21T01:37:23;8.63;;;2.87;;
14306;SDS011;7237;49.500;11.400;2024-02-21T01:39:50;7.00;;;3.17;;
14306;SDS011;7237;49.500;11.400;2024-02-21T01:42:17;5.33;;;2.90;;
14306;SDS011;7237;49.500;11.400;2024-02-21T01:44:44;6.80;;;2.70;;
14306;SDS011;7237;49.500;11.400;2024-02-21T01:47:11;8.00;;;2.93;;
14306;SDS011;7237;49.500;11.400;2024-02-21T01:49:39;4.57;;;2.67;;
14306;SDS011;7237;49.500;11.400;2024-02-21T01:52:06;9.17;;;3.00;;
14306;SDS011;7237;49.500;11.400;2024-02-21T01:54:35;7.77;;;2.80;;
14306;SDS011;7237;49.500;11.400;2024-02-21T01:57:02;7.17;;;3.00;;
14306;SDS011;7237;49.500;11.400;2024-02-21T01:59:30;9.43;;;3.10;;
14306;SDS011;7237;49.500;11.400;2024-02-21T02:01:57;7.93;;;3.10;;
14306;SDS011;7237;49.500;11.400;2024-02-21T02:04:25;11.13;;;3.60;;
14306;SDS011;7237;49.500;11.400;2024-02-21T02:06:52;7.47;;;3.07;;
14306;SDS011;7237;49.500;11.400;2024-02-21T02:09:19;7.53;;;3.13;;
14306;SDS011;7237;49.500;11.400;2024-02-21T02:11:48;7.80;;;2.83;;
14306;SDS011;7237;49.500;11.400;2024-02-21T02:14:15;8.07;;;3.00;;
14306;SDS011;7237;49.500;11.400;2024-02-21T02:16:42;8.60;;;3.17;;
14306;SDS011;7237;49.500;11.400;2024-02-21T02:19:09;7.77;;;2.80;;
14306;SDS011;7237;49.500;11.400;2024-02-21T02:21:39;7.60;;;3.03;;
14306;SDS011;7237;49.500;11.400;2024-02-21T02:24:07;8.43;;;3.40;;
14306;SDS011;7237;49.500;11.400;2024-02-21T02:26:35;7.77;;;3.03;;
14306;SDS011;7237;49.500;11.400;2024-02-21T02:29:02;11.63;;;3.50;;
14306;SDS011;7237;49.500;11.400;2024-02-21T02:31:29;8.47;;;3.10;;
14306;SDS011;7237;49.500;11.400;2024-02-21T02:33:56;9.93;;;3.33;;
14306;SDS011;7237;49.500;11.400;2024-02-21T02:36:23;6.93;;;3.00;;
14306;SDS011;7237;49.500;11.400;2024-02-21T02:38:50;5.77;;;2.97;;
14306;SDS011;7237;49.500;11.400;2024-02-21T02:41:18;10.40;;;3.20;;
14306;SDS011;7237;49.500;11.400;2024-02-21T02:43:45;7.60;;;2.97;;
14306;SDS011;7237;49.500;11.400;2024-02-21T02:46:12;7.10;;;3.10;;
14306;SDS011;7237;49.500;11.400;2024-02-21T02:48:39;6.63;;;2.60;;
14306;SDS011;7237;49.500;11.400;2024-02-21T02:51:06;8.20;;;3.20;;
14306;SDS011;7237;49.500;11.400;2024-02-21T02:53:33;8.03;;;2.93;;
14306;SDS011;7237;49.500;11.400;2024-02-21T02:56:01;6.47;;;2.40;;
14306;SDS011;7237;49.500;11.400;2024-02-21T02:58:29;10.50;;;3.47;;
14306;SDS011;7237;49.500;11.400;2024-02-21T03:00:56;7.10;;;3.40;;
14306;SDS011;7237;49.500;11.400;2024-02-21T03:03:23;10.17;;;3.40;;
14306;SDS011;7237;49.500;11.400;2024-02-21T03:05:50;7.17;;;3.17;;
14306;SDS011;7237;49.500;11.400;2024-02-21T03:08:17;8.43;;;3.53;;
14306;SDS011;7237;49.500;11.400;2024-02-21T03:10:44;12.03;;;3.50;;
14306;SDS011;7237;49.500;11.400;2024-02-21T03:13:11;5.77;;;3.03;;
14306;SDS011;7237;49.500;11.400;2024-02-21T03:15:40;6.87;;;3.00;;
14306;SDS011;7237;49.500;11.400;2024-02-21T03:18:07;7.53;;;3.93;;
14306;SDS011;7237;49.500;11.400;2024-02-21T03:20:34;10.90;;;2.97;;
14306;SDS011;7237;49.500;11.400;2024-02-21T03:23:01;7.40;;;3.00;;
14306;SDS011;7237;49.500;11.400;2024-02-21T03:25:28;6.60;;;3.50;;
14306;SDS011;7237;49.500;11.400;2024-02-21T03:27:55;9.03;;;3.17;;
14306;SDS011;7237;49.500;11.400;2024-02-21T03:30:22;8.13;;;3.00;;
14306;SDS011;7237;49.500;11.400;2024-02-21T03:32:50;9.87;;;3.13;;
14306;SDS011;7237;49.500;11.400;2024-02-21T03:35:17;7.33;;;3.30;;
14306;SDS011;7237;49.500;11.400;2024-02-21T03:37:45;10.73;;;2.90;;
14306;SDS011;7237;49.500;11.400;2024-02-21T03:40:12;8.50;;;3.03;;
14306;SDS011;7237;49.500;11.400;2024-02-21T03:42:39;8.17;;;3.13;;
14306;SDS011;7237;49.500;11.400;2024-02-21T03:45:06;8.67;;;3.00;;
14306;SDS011;7237;49.500;11.400;2024-02-21T03:47:34;7.03;;;3.23;;
14306;SDS011;7237;49.500;11.400;2024-02-21T03:50:02;9.40;;;3.27;;
14306;SDS011;7237;49.500;11.400;2024-02-21T03:52:29;8.33;;;3.10;;
14306;SDS011;7237;49.500;11.400;2024-02-21T03:54:56;8.50;;;2.80;;
14306;SDS011;7237;49.500;11.400;2024-02-21T03:57:23;8.37;;;3.00;;
14306;SDS011;7237;49.500;11.400;2024-02-21T03:59:50;7.37;;;3.10;;
14306;SDS011;7237;49.500;11.400;2024-02-21T04:02:18;6.13;;;2.90;;
14306;SDS011;7237;49.500;11.400;2024-02-21T04:04:45;15.87;;;3.67;;
14306;SDS011;7237;49.500;11.400;2024-02-21T04:07:14;5.63;;;3.10;;
14306;SDS011;7237;49.500;11.400;2024-02-21T04:09:41;6.07;;;2.80;;
14306;SDS011;7237;49.500;11.400;2024-02-21T04:12:08;8.37;;;3.43;;
14306;SDS011;7237;49.500;11.400;2024-02-21T04:14:35;8.60;;;3.37;;
14306;SDS011;7237;49.500;11.400;2024-02-21T04:17:04;7.03;;;3.00;;
14306;SDS011;7237;49.500;11.400;2024-02-21T04:19:32;8.93;;;3.23;;
14306;SDS011;7237;49.500;11.400;2024-02-21T04:21:59;7.63;;;3.07;;
14306;SDS011;7237;49.500;11.400;2024-02-21T04:24:28;6.87;;;3.07;;
14306;SDS011;7237;49.500;11.400;2024-02-21T04:26:55;4.87;;;2.80;;
14306;SDS011;7237;49.500;11.400;2024-02-21T04:29:22;7.00;;;2.80;;
14306;SDS011;7237;49.500;11.400;2024-02-21T04:31:49;8.07;;;3.07;;
14306;SDS011;7237;49.500;11.400;2024-02-21T04:34:16;10.00;;;2.50;;
14306;SDS011;7237;49.500;11.400;2024-02-21T04:36:43;9.27;;;3.10;;
14306;SDS011;7237;49.500;11.400;2024-02-21T04:39:10;7.70;;;3.17;;
14306;SDS011;7237;49.500;11.400;2024-02-21T04:41:38;15.23;;;3.30;;
14306;SDS011;7237;49.500;11.400;2024-02-21T04:44:06;5.10;;;2.33;;
14306;SDS011;7237;49.500;11.400;2024-02-21T04:46:33;6.83;;;2.93;;
14306;SDS011;7237;49.500;11.400;2024-02-21T04:49:00;11.90;;;3.53;;
14306;SDS011;7237;49.500;11.400;2024-02-21T04:51:28;6.50;;;2.90;;
14306;SDS011;7237;49.500;11.400;2024-02-21T04:53:55;11.00;;;3.00;;
14306;SDS011;7237;49.500;11.400;2024-02-21T04:56:22;10.40;;;3.30;;
14306;SDS011;7237;49.500;11.400;2024-02-21T04:58:51;7.93;;;3.20;;
14306;SDS011;7237;49.500;11.400;2024-02-21T05:01:18;6.37;;;2.40;;
14306;SDS011;7237;49.500;11.400;2024-02-21T05:03:45;4.90;;;2.90;;
14306;SDS011;7237;49.500;11.400;2024-02-21T05:06:12;6.03;;;2.70;;
14306;SDS011;7237;49.500;11.400;2024-02-21T05:08:39;7.43;;;3.60;;
14306;SDS011;7237;49.500;11.400;2024-02-21T05:11:06;11.83;;;3.83;;
14306;SDS011;7237;49.500;11.400;2024-02-21T05:13:33;7.60;;;3.13;;
14306;SDS011;7237;49.500;11.400;2024-02-21T05:16:02;7.67;;;2.77;;
14306;SDS011;7237;49.500;11.400;2024-02-21T05:18:29;7.30;;;3.07;;
14306;SDS011;7237;49.500;11.400;2024-02-21T05:20:56;5.27;;;2.63;;
14306;SDS011;7237;49.500;11.400;2024-02-21T05:23:23;6.33;;;2.87;;
14306;SDS011;7237;49.500;11.400;2024-02-21T05:25:50;8.80;;;2.73;;
14306;SDS011;7237;49.500;11.400;2024-02-21T05:28:17;7.00;;;2.93;;
14306;SDS011;7237;49.500;11.400;2024-02-21T05:30:45;11.27;;;3.17;;
14306;SDS011;7237;49.500;11.400;2024-02-21T05:33:13;7.13;;;2.87;;
14306;SDS011;7237;49.500;11.400;2024-02-21T05:35:46;7.93;;;2.80;;
14306;SDS011;7237;49.500;11.400;2024-02-21T05:38:13;8.90;;;3.13;;
14306;SDS011;7237;49.500;11.400;2024-02-21T05:40:40;7.60;;;3.20;;
14306;SDS011;7237;49.500;11.400;2024-02-21T05:43:07;6.97;;;2.80;;
14306;SDS011;7237;49.500;11.400;2024-02-21T05:45:34;10.17;;;3.17;;
14306;SDS011;7237;49.500;11.400;2024-02-21T05:48:02;10.57;;;4.37;;
14306;SDS011;7237;49.500;11.400;2024-02-21T05:50:30;12.17;;;3.60;;
14306;SDS011;7237;49.500;11.400;2024-02-21T05:52:57;7.93;;;3.03;;
14306;SDS011;7237;49.500;11.400;2024-02-21T05:55:24;7.13;;;2.80;;
14306;SDS011;7237;49.500;11.400;2024-02-21T05:57:53;8.53;;;2.87;;
14306;SDS011;7237;49.500;11.400;2024-02-21T06:00:20;9.57;;;3.43;;
14306;SDS011;7237;49.500;11.400;2024-02-21T06:02:47;5.87;;;2.57;;
14306;SDS011;7237;49.500;11.400;2024-02-21T06:05:14;5.83;;;2.60;;
14306;SDS011;7237;49.500;11.400;2024-02-21T06:07:43;9.70;;;2.80;;
14306;SDS011;7237;49.500;11.400;2024-02-21T06:10:10;7.60;;;2.77;;
14306;SDS011;7237;49.500;11.400;2024-02-21T06:12:37;9.57;;;4.70;;
14306;SDS011;7237;49.500;11.400;2024-02-21T06:15:04;11.37;;;4.13;;
14306;SDS011;7237;49.500;11.400;2024-02-21T06:17:31;10.70;;;3.40;;
14306;SDS011;7237;49.500;11.400;2024-02-21T06:19:58;7.67;;;3.47;;
14306;SDS011;7237;49.500;11.400;2024-02-21T06:22:25;6.50;;;2.90;;
14306;SDS011;7237;49.500;11.400;2024-02-21T06:24:54;10.77;;;3.70;;
14306;SDS011;7237;49.500;11.400;2024-02-21T06:27:21;6.80;;;3.13;;
14306;SDS011;7237;49.500;11.400;2024-02-21T06:29:49;9.50;;;3.27;;
14306;SDS011;7237;49.500;11.400;2024-02-21T06:32:16;6.27;;;2.80;;
14306;SDS011;7237;49.500;11.400;2024-02-21T06:34:43;5.73;;;2.83;;
14306;SDS011;7237;49.500;11.400;2024-02-21T06:37:10;8.43;;;2.80;;
14306;SDS011;7237;49.500;11.400;2024-02-21T06:39:37;6.50;;;2.90;;
14306;SDS011;7237;49.500;11.400;2024-02-21T06:42:07;9.23;;;2.87;;
14306;SDS011;7237;49.500;11.400;2024-02-21T06:44:34;8.83;;;3.23;;
14306;SDS011;7237;49.500;11.400;2024-02-21T06:47:05;8.07;;;3.37;;
14306;SDS011;7237;49.500;11.400;2024-02-21T06:49:32;6.57;;;2.97;;
14306;SDS011;7237;49.500;11.400;2024-02-21T06:51:59;7.33;;;3.10;;
14306;SDS011;7237;49.500;11.400;2024-02-21T06:54:26;8.63;;;3.00;;
14306;SDS011;7237;49.500;11.400;2024-02-21T06:56:53;6.73;;;2.93;;
14306;SDS011;7237;49.500;11.400;2024-02-21T06:59:22;9.77;;;3.53;;
14306;SDS011;7237;49.500;11.400;2024-02-21T07:01:49;11.73;;;3.27;;
14306;SDS011;7237;49.500;11.400;2024-02-21T07:04:16;9.93;;;3.20;;
14306;SDS011;7237;49.500;11.400;2024-02-21T07:06:43;12.87;;;2.83;;
14306;SDS011;7237;49.500;11.400;2024-02-21T07:09:10;8.17;;;3.73;;
14306;SDS011;7237;49.500;11.400;2024-02-21T07:11:37;7.80;;;3.00;;
14306;SDS011;7237;49.500;11.400;2024-02-21T07:14:04;8.67;;;2.97;;
14306;SDS011;7237;49.500;11.400;2024-02-21T07:16:33;5.67;;;2.70;;
14306;SDS011;7237;49.500;11.400;2024-02-21T07:19:00;9.73;;;2.90;;
14306;SDS011;7237;49.500;11.400;2024-02-21T07:21:27;9.03;;;3.03;;
14306;SDS011;7237;49.500;11.400;2024-02-21T07:23:54;10.73;;;2.97;;
14306;SDS011;7237;49.500;11.400;2024-02-21T07:26:21;7.83;;;2.57;;
14306;SDS011;7237;49.500;11.400;2024-02-21T07:28:48;8.47;;;2.57;;
14306;SDS011;7237;49.500;11.400;2024-02-21T07:31:15;8.33;;;3.47;;
14306;SDS011;7237;49.500;11.400;2024-02-21T07:33:44;5.97;;;3.00;;
14306;SDS011;7237;49.500;11.400;2024-02-21T07:36:11;9.77;;;2.70;;
14306;SDS011;7237;49.500;11.400;2024-02-21T07:38:39;8.00;;;3.10;;
14306;SDS011;7237;49.500;11.400;2024-02-21T07:41:06;9.30;;;3.50;;
14306;SDS011;7237;49.500;11.400;2024-02-21T07:43:33;10.83;;;3.07;;
14306;SDS011;7237;49.500;11.400;2024-02-21T07:46:00;6.80;;;3.13;;
14306;SDS011;7237;49.500;11.400;2024-02-21T07:48:27;7.50;;;2.80;;
14306;SDS011;7237;49.500;11.400;2024-02-21T07:50:55;7.57;;;3.03;;
14306;SDS011;7237;49.500;11.400;2024-02-21T07:53:22;7.20;;;3.10;;
14306;SDS011;7237;49.500;11.400;2024-02-21T07:55:49;6.50;;;2.97;;
14306;SDS011;7237;49.500;11.400;2024-02-21T07:58:16;5.13;;;2.90;;
14306;SDS011;7237;49.500;11.400;2024-02-21T08:00:43;7.13;;;3.00;;
14306;SDS011;7237;49.500;11.400;2024-02-21T08:03:10;5.73;;;3.07;;
14306;SDS011;7237;49.500;11.400;2024-02-21T08:05:37;3.80;;;2.60;;
14306;SDS011;7237;49.500;11.400;2024-02-21T08:08:06;5.30;;;2.40;;
14306;SDS011;7237;49.500;11.400;2024-02-21T08:10:33;5.50;;;2.20;;
14306;SDS011;7237;49.500;11.400;2024-02-21T08:13:00;7.40;;;2.87;;
14306;SDS011;7237;49.500;11.400;2024-02-21T08:15:27;5.63;;;2.43;;
14306;SDS011;7237;49.500;11.400;2024-02-21T08:17:54;9.57;;;2.50;;
14306;SDS011;7237;49.500;11.400;2024-02-21T08:20:24;6.23;;;2.60;;
14306;SDS011;7237;49.500;11.400;2024-02-21T08:22:51;6.67;;;2.53;;
14306;SDS011;7237;49.500;11.400;2024-02-21T08:25:20;6.43;;;2.50;;
14306;SDS011;7237;49.500;11.400;2024-02-21T08:27:47;7.50;;;2.70;;
14306;SDS011;7237;49.500;11.400;2024-02-21T08:30:14;6.73;;;2.63;;
14306;SDS011;7237;49.500;11.400;2024-02-21T08:32:41;11.40;;;2.63;;
14306;SDS011;7237;49.500;11.400;2024-02-21T08:35:08;4.73;;;2.37;;
14306;SDS011;7237;49.500;11.400;2024-02-21T08:37:35;6.90;;;2.10;;
14306;SDS011;7237;49.500;11.400;2024-02-21T08:40:03;7.60;;;3.03;;
14306;SDS011;7237;49.500;11.400;2024-02-21T08:42:34;7.23;;;2.57;;
14306;SDS011;7237;49.500;11.400;2024-02-21T08:45:01;7.73;;;2.83;;
14306;SDS011;7237;49.500;11.400;2024-02-21T08:47:29;6.33;;;2.50;;
14306;SDS011;7237;49.500;11.400;2024-02-21T08:49:56;8.63;;;2.30;;
14306;SDS011;7237;49.500;11.400;2024-02-21T08:52:23;8.70;;;2.50;;
14306;SDS011;7237;49.500;11.400;2024-02-21T08:54:50;5.90;;;2.20;;
14306;SDS011;7237;49.500;11.400;2024-02-21T08:57:18;6.70;;;2.13;;
14306;SDS011;7237;49.500;11.400;2024-02-21T08:59:47;5.93;;;2.10;;
14306;SDS011;7237;49.500;11.400;2024-02-21T09:02:14;5.47;;;2.30;;
14306;SDS011;7237;49.500;11.400;2024-02-21T09:04:42;4.83;;;2.10;;
14306;SDS011;7237;49.500;11.400;2024-02-21T09:07:09;4.13;;;2.03;;
14306;SDS011;7237;49.500;11.400;2024-02-21T09:09:36;5.93;;;2.13;;
14306;SDS011;7237;49.500;11.400;2024-02-21T09:12:05;7.97;;;2.13;;
14306;SDS011;7237;49.500;11.400;2024-02-21T09:14:32;4.40;;;2.10;;
14306;SDS011;7237;49.500;11.400;2024-02-21T09:17:00;6.53;;;2.33;;
14306;SDS011;7237;49.500;11.400;2024-02-21T09:19:28;5.67;;;2.50;;
14306;SDS011;7237;49.500;11.400;2024-02-21T09:21:55;5.17;;;1.97;;
14306;SDS011;7237;49.500;11.400;2024-02-21T09:24:22;9.17;;;2.60;;
14306;SDS011;7237;49.500;11.400;2024-02-21T09:26:49;4.93;;;2.30;;
14306;SDS011;7237;49.500;11.400;2024-02-21T09:29:16;6.20;;;2.23;;
14306;SDS011;7237;49.500;11.400;2024-02-21T09:31:44;5.97;;;2.13;;
14306;SDS011;7237;49.500;11.400;2024-02-21T09:34:14;5.10;;;2.27;;
14306;SDS011;7237;49.500;11.400;2024-02-21T09:36:41;6.60;;;2.30;;
14306;SDS011;7237;49.500;11.400;2024-02-21T09:39:09;5.70;;;2.30;;
14306;SDS011;7237;49.500;11.400;2024-02-21T09:41:40;3.97;;;2.07;;
14306;SDS011;7237;49.500;11.400;2024-02-21T09:44:12;7.13;;;2.20;;
14306;SDS011;7237;49.500;11.400;2024-02-21T09:46:41;6.70;;;2.17;;
14306;SDS011;7237;49.500;11.400;2024-02-21T09:49:12;7.77;;;2.33;;
14306;SDS011;7237;49.500;11.400;2024-02-21T09:51:42;4.70;;;1.80;;
14306;SDS011;7237;49.500;11.400;2024-02-21T09:54:10;5.40;;;2.43;;
14306;SDS011;7237;49.500;11.400;2024-02-21T09:56:37;5.17;;;2.07;;
14306;SDS011;7237;49.500;11.400;2024-02-21T09:59:04;5.50;;;1.83;;
14306;SDS011;7237;49.500;11.400;2024-02-21T10:01:31;4.27;;;2.03;;
14306;SDS011;7237;49.500;11.400;2024-02-21T10:03:59;7.73;;;1.93;;
14306;SDS011;7237;49.500;11.400;2024-02-21T10:06:28;5.27;;;2.17;;
14306;SDS011;7237;49.500;11.400;2024-02-21T10:08:56;4.50;;;2.00;;
14306;SDS011;7237;49.500;11.400;2024-02-21T10:11:23;7.00;;;2.00;;
14306;SDS011;7237;49.500;11.400;2024-02-21T10:13:50;6.97;;;1.80;;
14306;SDS011;7237;49.500;11.400;2024-02-21T10:16:18;4.10;;;1.80;;
14306;SDS011;7237;49.500;11.400;2024-02-21T10:18:45;4.97;;;2.10;;
14306;SDS011;7237;49.500;11.400;2024-02-21T10:21:12;7.40;;;2.27;;
14306;SDS011;7237;49.500;11.400;2024-02-21T10:23:42;6.80;;;2.57;;
14306;SDS011;7237;49.500;11.400;2024-02-21T10:26:11;7.67;;;2.37;;
14306;SDS011;7237;49.500;11.400;2024-02-21T10:28:38;5.47;;;2.10;;
14306;SDS011;7237;49.500;11.400;2024-02-21T10:31:07;6.23;;;2.40;;
14306;SDS011;7237;49.500;11.400;2024-02-21T10:33:35;8.07;;;2.40;;
14306;SDS011;7237;49.500;11.400;2024-02-21T10:36:09;4.37;;;1.70;;
14306;SDS011;7237;49.500;11.400;2024-02-21T10:38:36;4.53;;;1.93;;
14306;SDS011;7237;49.500;11.400;2024-02-21T10:41:04;3.77;;;1.97;;
14306;SDS011;7237;49.500;11.400;2024-02-21T10:43:33;4.87;;;1.73;;
14306;SDS011;7237;49.500;11.400;2024-02-21T10:46:05;5.90;;;2.33;;
14306;SDS011;7237;49.500;11.400;2024-02-21T10:48:34;6.87;;;2.00;;
14306;SDS011;7237;49.500;11.400;2024-02-21T10:51:12;5.07;;;2.03;;
14306;SDS011;7237;49.500;11.400;2024-02-21T10:53:41;5.90;;;2.20;;
14306;SDS011;7237;49.500;11.400;2024-02-21T10:56:15;7.40;;;2.43;;
14306;SDS011;7237;49.500;11.400;2024-02-21T10:58:44;7.63;;;1.90;;
14306;SDS011;7237;49.500;11.400;2024-02-21T11:01:12;4.67;;;2.00;;
14306;SDS011;7237;49.500;11.400;2024-02-21T11:03:40;3.23;;;1.40;;
14306;SDS011;7237;49.500;11.400;2024-02-21T11:06:08;5.83;;;2.10;;
14306;SDS011;7237;49.500;11.400;2024-02-21T11:08:36;6.07;;;2.30;;
14306;SDS011;7237;49.500;11.400;2024-02-21T11:11:04;4.07;;;2.00;;
14306;SDS011;7237;49.500;11.400;2024-02-21T11:13:31;2.83;;;1.90;;
14306;SDS011;7237;49.500;11.400;2024-02-21T11:16:07;6.67;;;2.37;;
14306;SDS011;7237;49.500;11.400;2024-02-21T11:18:35;8.23;;;1.90;;
14306;SDS011;7237;49.500;11.400;2024-02-21T11:21:02;5.67;;;1.80;;
14306;SDS011;7237;49.500;11.400;2024-02-21T11:23:30;4.17;;;1.87;;
14306;SDS011;7237;49.500;11.400;2024-02-21T11:26:06;7.73;;;2.37;;
14306;SDS011;7237;49.500;11.400;2024-02-21T11:28:34;3.10;;;1.63;;
14306;SDS011;7237;49.500;11.400;2024-02-21T11:31:08;5.90;;;1.93;;
14306;SDS011;7237;49.500;11.400;2024-02-21T11:33:35;3.37;;;2.00;;
14306;SDS011;7237;49.500;11.400;2024-02-21T11:36:02;3.90;;;1.80;;
14306;SDS011;7237;49.500;11.400;2024-02-21T11:38:29;6.37;;;2.00;;
14306;SDS011;7237;49.500;11.400;2024-02-21T11:40:56;5.70;;;2.10;;
14306;SDS011;7237;49.500;11.400;2024-02-21T11:43:24;5.47;;;1.83;;
14306;SDS011;7237;49.500;11.400;2024-02-21T11:45:57;4.90;;;2.03;;
14306;SDS011;7237;49.500;11.400;2024-02-21T11:48:26;4.07;;;2.00;;
14306;SDS011;7237;49.500;11.400;2024-02-21T11:50:53;4.57;;;2.10;;
14306;SDS011;7237;49.500;11.400;2024-02-21T11:53:21;3.17;;;1.90;;
14306;SDS011;7237;49.500;11.400;2024-02-21T11:55:48;4.13;;;1.70;;
14306;SDS011;7237;49.500;11.400;2024-02-21T11:58:15;5.37;;;2.10;;
14306;SDS011;7237;49.500;11.400;2024-02-21T12:00:42;6.27;;;1.67;;
14306;SDS011;7237;49.500;11.400;2024-02-21T12:03:09;5.33;;;2.23;;
14306;SDS011;7237;49.500;11.400;2024-02-21T12:05:37;5.47;;;1.70;;
14306;SDS011;7237;49.500;11.400;2024-02-21T12:08:05;5.17;;;2.47;;
14306;SDS011;7237;49.500;11.400;2024-02-21T12:10:32;5.73;;;1.90;;
14306;SDS011;7237;49.500;11.400;2024-02-21T12:13:06;6.43;;;2.20;;
14306;SDS011;7237;49.500;11.400;2024-02-21T12:15:34;5.93;;;2.03;;
14306;SDS011;7237;49.500;11.400;2024-02-21T12:18:01;4.97;;;1.88;;
14306;SDS011;7237;49.500;11.400;2024-02-21T12:20:28;4.78;;;2.38;;
14306;SDS011;7237;49.500;11.400;2024-02-21T12:22:58;3.33;;;1.75;;
14306;SDS011;7237;49.500;11.400;2024-02-21T12:25:26;5.00;;;1.95;;
14306;SDS011;7237;49.500;11.400;2024-02-21T12:27:54;4.93;;;1.85;;
14306;SDS011;7237;49.500;11.400;2024-02-21T12:30:21;5.57;;;1.98;;
14306;SDS011;7237;49.500;11.400;2024-02-21T12:32:48;7.32;;;2.03;;
14306;SDS011;7237;49.500;11.400;2024-02-21T12:35:16;3.80;;;1.73;;
14306;SDS011;7237;49.500;11.400;2024-02-21T12:37:44;5.10;;;1.90;;
14306;SDS011;7237;49.500;11.400;2024-02-21T12:40:12;3.17;;;1.60;;
14306;SDS011;7237;49.500;11.400;2024-02-21T12:42:39;5.70;;;1.83;;
14306;SDS011;7237;49.500;11.400;2024-02-21T12:45:07;3.28;;;1.60;;
14306;SDS011;7237;49.500;11.400;2024-02-21T12:47:34;4.22;;;1.65;;
14306;SDS011;7237;49.500;11.400;2024-02-21T12:50:01;3.23;;;1.40;;
14306;SDS011;7237;49.500;11.400;2024-02-21T12:52:31;6.43;;;1.90;;
14306;SDS011;7237;49.500;11.400;2024-02-21T12:54:58;4.35;;;1.60;;
14306;SDS011;7237;49.500;11.400;2024-02-21T12:57:27;5.20;;;1.50;;
14306;SDS011;7237;49.500;11.400;2024-02-21T12:59:54;3.90;;;1.40;;
14306;SDS011;7237;49.500;11.400;2024-02-21T13:02:23;5.70;;;1.70;;
14306;SDS011;7237;49.500;11.400;2024-02-21T13:04:50;3.60;;;1.20;;
14306;SDS011;7237;49.500;11.400;2024-02-21T13:07:17;3.40;;;1.38;;
14306;SDS011;7237;49.500;11.400;2024-02-21T13:09:44;1.85;;;1.40;;
14306;SDS011;7237;49.500;11.400;2024-02-21T13:12:11;4.70;;;1.60;;
14306;SDS011;7237;49.500;11.400;2024-02-21T13:14:40;3.37;;;1.50;;
14306;SDS011;7237;49.500;11.400;2024-02-21T13:17:08;3.40;;;1.60;;
14306;SDS011;7237;49.500;11.400;2024-02-21T13:19:35;2.83;;;1.50;;
14306;SDS011;7237;49.500;11.400;2024-02-21T13:22:02;2.73;;;1.63;;
14306;SDS011;7237;49.500;11.400;2024-02-21T13:24:30;3.00;;;1.63;;
14306;SDS011;7237;49.500;11.400;2024-02-21T13:26:57;2.73;;;1.40;;
14306;SDS011;7237;49.500;11.400;2024-02-21T13:29:24;3.63;;;1.33;;
14306;SDS011;7237;49.500;11.400;2024-02-21T13:31:53;3.60;;;1.50;;
14306;SDS011;7237;49.500;11.400;2024-02-21T13:34:20;3.53;;;1.40;;
14306;SDS011;7237;49.500;11.400;2024-02-21T13:36:47;3.77;;;1.40;;
14306;SDS011;7237;49.500;11.400;2024-02-21T13:39:14;2.43;;;1.10;;
14306;SDS011;7237;49.500;11.400;2024-02-21T13:41:43;2.40;;;1.30;;
14306;SDS011;7237;49.500;11.400;2024-02-21T13:44:11;2.93;;;1.20;;
14306;SDS011;7237;49.500;11.400;2024-02-21T13:46:38;4.43;;;1.40;;
14306;SDS011;7237;49.500;11.400;2024-02-21T13:49:07;1.90;;;1.40;;
14306;SDS011;7237;49.500;11.400;2024-02-21T13:51:34;3.40;;;1.43;;
14306;SDS011;7237;49.500;11.400;2024-02-21T13:54:02;3.90;;;1.50;;
14306;SDS011;7237;49.500;11.400;2024-02-21T13:56:29;3.43;;;1.73;;
14306;SDS011;7237;49.500;11.400;2024-02-21T13:58:57;2.55;;;1.40;;
14306;SDS011;7237;49.500;11.400;2024-02-21T14:01:25;2.63;;;1.20;;
14306;SDS011;7237;49.500;11.400;2024-02-21T14:03:52;2.80;;;1.40;;
14306;SDS011;7237;49.500;11.400;2024-02-21T14:06:21;4.35;;;1.50;;
14306;SDS011;7237;49.500;11.400;2024-02-21T14:08:48;5.07;;;1.67;;
14306;SDS011;7237;49.500;11.400;2024-02-21T14:11:15;3.30;;;1.40;;
14306;SDS011;7237;49.500;11.400;2024-02-21T14:13:42;2.85;;;1.58;;
14306;SDS011;7237;49.500;11.400;2024-02-21T14:16:10;3.67;;;1.42;;
14306;SDS011;7237;49.500;11.400;2024-02-21T14:18:38;3.17;;;1.35;;
14306;SDS011;7237;49.500;11.400;2024-02-21T14:21:06;3.67;;;1.90;;
14306;SDS011;7237;49.500;11.400;2024-02-21T14:23:34;3.13;;;1.37;;
14306;SDS011;7237;49.500;11.400;2024-02-21T14:26:02;5.27;;;1.50;;
14306;SDS011;7237;49.500;11.400;2024-02-21T14:28:29;4.47;;;1.70;;
14306;SDS011;7237;49.500;11.400;2024-02-21T14:30:56;2.40;;;1.35;;
14306;SDS011;7237;49.500;11.400;2024-02-21T14:33:25;5.80;;;1.83;;
14306;SDS011;7237;49.500;11.400;2024-02-21T14:35:52;4.85;;;1.83;;
14306;SDS011;7237;49.500;11.400;2024-02-21T14:38:19;3.38;;;2.10;;
14306;SDS011;7237;49.500;11.400;2024-02-21T14:40:47;1.60;;;1.50;;
14306;SDS011;7237;49.500;11.400;2024-02-21T14:43:14;4.83;;;2.13;;
14306;SDS011;7237;49.500;11.400;2024-02-21T14:45:43;4.80;;;1.87;;
14306;SDS011;7237;49.500;11.400;2024-02-21T14:48:12;3.63;;;2.10;;